sensor_id;sensor_type;location;lat;lon;timestamp;pressure;altitude;pressure_sealevel;temperature;humidity
47104;BME280;32853;52.164;5.400;2023-04-09T00:01:47;102580.34;;;12.18;100.00
47104;BME280;32853;52.164;5.400;2023-04-09T00:04:12;102554.97;;;12.18;100.00
47104;BME280;32853;52.164;5.400;2023-04-09T00:06:38;102560.28;;;12.15;100.00
47104;BME280;32853;52.164;5.400;2023-04-09T00:09:09;102573.16;;;12.28;100.00
47104;BME280;32853;52.164;5.400;2023-04-09T00:11:34;102553.13;;;12.25;100.00
47104;BME280;32853;52.164;5.400;2023-04-09T00:14:00;102560.16;;;12.23;100.00
47104;BME280;32853;52.164;5.400;2023-04-09T00:16:28;102581.03;;;12.28;100.00
47104;BME280;32853;52.164;5.400;2023-04-09T00:18:53;102574.81;;;12.33;100.00
47104;BME280;32853;52.164;5.400;2023-04-09T00:21:40;102579.53;;;12.14;100.00
47104;BME280;32853;52.164;5.400;2023-04-09T00:24:09;102575.91;;;12.23;100.00
47104;BME280;32853;52.164;5.400;2023-04-09T00:26:38;102571.50;;;12.24;100.00
47104;BME280;32853;52.164;5.400;2023-04-09T00:29:04;102561.94;;;12.21;100.00
47104;BME280;32853;52.164;5.400;2023-04-09T00:31:42;102565.47;;;12.18;100.00
47104;BME280;32853;52.164;5.400;2023-04-09T00:34:09;102566.25;;;12.24;100.00
47104;BME280;32853;52.164;5.400;2023-04-09T00:36:36;102559.47;;;12.13;100.00
47104;BME280;32853;52.164;5.400;2023-04-09T00:39:01;102536.34;;;11.87;100.00
47104;BME280;32853;52.164;5.400;2023-04-09T00:41:42;102570.13;;;12.04;100.00
47104;BME280;32853;52.164;5.400;2023-04-09T00:44:13;102560.88;;;11.83;100.00
47104;BME280;32853;52.164;5.400;2023-04-09T00:46:40;102557.34;;;11.84;100.00
47104;BME280;32853;52.164;5.400;2023-04-09T00:49:05;102548.56;;;11.88;100.00
47104;BME280;32853;52.164;5.400;2023-04-09T00:51:31;102519.00;;;11.80;100.00
47104;BME280;32853;52.164;5.400;2023-04-09T00:54:00;102547.44;;;12.02;100.00
47104;BME280;32853;52.164;5.400;2023-04-09T00:56:25;102556.97;;;12.06;100.00
47104;BME280;32853;52.164;5.400;2023-04-09T00:58:53;102533.38;;;12.06;100.00
47104;BME280;32853;52.164;5.400;2023-04-09T01:01:21;102564.50;;;12.24;100.00
47104;BME280;32853;52.164;5.400;2023-04-09T01:03:56;102552.59;;;12.06;100.00
47104;BME280;32853;52.164;5.400;2023-04-09T01:06:40;102556.78;;;12.16;100.00
47104;BME280;32853;52.164;5.400;2023-04-09T01:11:51;102542.25;;;11.97;100.00
47104;BME280;32853;52.164;5.400;2023-04-09T01:17:05;102474.47;;;11.77;100.00
47104;BME280;32853;52.164;5.400;2023-04-09T01:19:53;102540.91;;;12.24;100.00
47104;BME280;32853;52.164;5.400;2023-04-09T01:22:59;102544.78;;;12.03;100.00
47104;BME280;32853;52.164;5.400;2023-04-09T01:28:43;102536.72;;;12.14;100.00
47104;BME280;32853;52.164;5.400;2023-04-09T01:31:13;102533.59;;;11.93;100.00
47104;BME280;32853;52.164;5.400;2023-04-09T01:33:49;102536.06;;;12.03;100.00
47104;BME280;32853;52.164;5.400;2023-04-09T01:36:16;102532.69;;;11.95;100.00
47104;BME280;32853;52.164;5.400;2023-04-09T01:38:47;102529.00;;;12.06;100.00
47104;BME280;32853;52.164;5.400;2023-04-09T01:41:17;102530.88;;;12.00;100.00
47104;BME280;32853;52.164;5.400;2023-04-09T01:43:44;102537.19;;;11.89;100.00
47104;BME280;32853;52.164;5.400;2023-04-09T01:46:10;102532.59;;;12.01;100.00
47104;BME280;32853;52.164;5.400;2023-04-09T01:48:39;102524.81;;;11.96;100.00
47104;BME280;32853;52.164;5.400;2023-04-09T01:51:04;102519.34;;;12.08;100.00
47104;BME280;32853;52.164;5.400;2023-04-09T01:53:30;102529.78;;;12.11;100.00
47104;BME280;32853;52.164;5.400;2023-04-09T01:55:58;102508.19;;;11.97;100.00
47104;BME280;32853;52.164;5.400;2023-04-09T01:58:24;102526.53;;;11.97;100.00
47104;BME280;32853;52.164;5.400;2023-04-09T02:00:50;102525.97;;;11.81;100.00
47104;BME280;32853;52.164;5.400;2023-04-09T02:03:22;102531.03;;;11.90;100.00
47104;BME280;32853;52.164;5.400;2023-04-09T02:06:09;102522.78;;;12.12;100.00
47104;BME280;32853;52.164;5.400;2023-04-09T02:08:36;102497.97;;;11.83;100.00
47104;BME280;32853;52.164;5.400;2023-04-09T02:11:03;102457.16;;;11.69;100.00
47104;BME280;32853;52.164;5.400;2023-04-09T02:14:00;102512.34;;;12.09;100.00
47104;BME280;32853;52.164;5.400;2023-04-09T02:16:37;102511.34;;;12.14;100.00
47104;BME280;32853;52.164;5.400;2023-04-09T02:19:03;102522.75;;;12.13;100.00
47104;BME280;32853;52.164;5.400;2023-04-09T02:21:40;102517.63;;;12.06;100.00
47104;BME280;32853;52.164;5.400;2023-04-09T02:24:12;102511.47;;;12.10;100.00
47104;BME280;32853;52.164;5.400;2023-04-09T02:26:47;102449.19;;;11.73;100.00
47104;BME280;32853;52.164;5.400;2023-04-09T02:29:12;102501.69;;;12.16;100.00
47104;BME280;32853;52.164;5.400;2023-04-09T02:31:38;102477.47;;;12.04;100.00
47104;BME280;32853;52.164;5.400;2023-04-09T02:34:22;102429.16;;;11.71;100.00
47104;BME280;32853;52.164;5.400;2023-04-09T02:37:13;102502.44;;;12.23;100.00
47104;BME280;32853;52.164;5.400;2023-04-09T02:39:39;102495.06;;;11.99;100.00
47104;BME280;32853;52.164;5.400;2023-04-09T02:42:05;102472.56;;;11.87;100.00
47104;BME280;32853;52.164;5.400;2023-04-09T02:44:35;102500.09;;;12.09;100.00
47104;BME280;32853;52.164;5.400;2023-04-09T02:47:01;102423.19;;;11.64;100.00
47104;BME280;32853;52.164;5.400;2023-04-09T02:49:30;102294.69;;;10.77;100.00
47104;BME280;32853;52.164;5.400;2023-04-09T02:51:56;102309.34;;;10.88;100.00
47104;BME280;32853;52.164;5.400;2023-04-09T02:54:21;102493.81;;;12.16;100.00
47104;BME280;32853;52.164;5.400;2023-04-09T02:56:48;102449.78;;;11.90;100.00
47104;BME280;32853;52.164;5.400;2023-04-09T02:59:18;102493.72;;;12.23;100.00
47104;BME280;32853;52.164;5.400;2023-04-09T03:01:43;102260.44;;;10.90;100.00
47104;BME280;32853;52.164;5.400;2023-04-09T03:04:08;102497.16;;;12.25;100.00
47104;BME280;32853;52.164;5.400;2023-04-09T03:06:46;102494.69;;;12.17;100.00
47104;BME280;32853;52.164;5.400;2023-04-09T03:09:11;102460.78;;;12.08;100.00
47104;BME280;32853;52.164;5.400;2023-04-09T03:11:36;102488.34;;;12.27;100.00
47104;BME280;32853;52.164;5.400;2023-04-09T03:14:04;102463.97;;;12.24;100.00
47104;BME280;32853;52.164;5.400;2023-04-09T03:16:30;102474.41;;;12.25;100.00
47104;BME280;32853;52.164;5.400;2023-04-09T03:18:55;102474.66;;;12.13;100.00
47104;BME280;32853;52.164;5.400;2023-04-09T03:21:21;102449.53;;;12.03;100.00
47104;BME280;32853;52.164;5.400;2023-04-09T03:23:46;102475.38;;;12.21;100.00
47104;BME280;32853;52.164;5.400;2023-04-09T03:26:11;102302.72;;;11.15;100.00
47104;BME280;32853;52.164;5.400;2023-04-09T03:28:37;102486.44;;;12.35;100.00
47104;BME280;32853;52.164;5.400;2023-04-09T03:31:05;102502.25;;;12.32;100.00
47104;BME280;32853;52.164;5.400;2023-04-09T03:33:36;102483.97;;;12.28;100.00
47104;BME280;32853;52.164;5.400;2023-04-09T03:36:02;102393.56;;;11.59;100.00
47104;BME280;32853;52.164;5.400;2023-04-09T03:38:31;102476.50;;;12.08;100.00
47104;BME280;32853;52.164;5.400;2023-04-09T03:40:58;102475.44;;;12.18;100.00
47104;BME280;32853;52.164;5.400;2023-04-09T03:43:23;102468.84;;;11.97;100.00
47104;BME280;32853;52.164;5.400;2023-04-09T03:45:48;102421.94;;;11.83;100.00
47104;BME280;32853;52.164;5.400;2023-04-09T03:48:14;102430.88;;;11.72;100.00
47104;BME280;32853;52.164;5.400;2023-04-09T03:51:05;102472.13;;;12.10;100.00
47104;BME280;32853;52.164;5.400;2023-04-09T03:53:31;102460.88;;;12.03;100.00
47104;BME280;32853;52.164;5.400;2023-04-09T03:55:56;102465.88;;;12.15;100.00
47104;BME280;32853;52.164;5.400;2023-04-09T03:58:25;102469.72;;;11.99;100.00
47104;BME280;32853;52.164;5.400;2023-04-09T04:00:54;102379.91;;;11.42;100.00
47104;BME280;32853;52.164;5.400;2023-04-09T04:03:19;102462.75;;;11.98;100.00
47104;BME280;32853;52.164;5.400;2023-04-09T04:05:46;102446.22;;;11.93;100.00
47104;BME280;32853;52.164;5.400;2023-04-09T04:08:14;102477.47;;;12.04;100.00
47104;BME280;32853;52.164;5.400;2023-04-09T04:10:40;102472.13;;;12.10;100.00
47104;BME280;32853;52.164;5.400;2023-04-09T04:13:12;102428.88;;;11.87;100.00
47104;BME280;32853;52.164;5.400;2023-04-09T04:15:41;102475.59;;;12.10;100.00
47104;BME280;32853;52.164;5.400;2023-04-09T04:18:07;102459.69;;;12.18;100.00
47104;BME280;32853;52.164;5.400;2023-04-09T04:20:36;102471.41;;;12.02;100.00
47104;BME280;32853;52.164;5.400;2023-04-09T04:23:02;102459.88;;;12.10;100.00
47104;BME280;32853;52.164;5.400;2023-04-09T04:25:56;102451.47;;;11.93;100.00
47104;BME280;32853;52.164;5.400;2023-04-09T04:28:40;102450.50;;;11.97;100.00
47104;BME280;32853;52.164;5.400;2023-04-09T04:31:23;102413.34;;;11.74;100.00
47104;BME280;32853;52.164;5.400;2023-04-09T04:33:48;102420.94;;;11.90;100.00
47104;BME280;32853;52.164;5.400;2023-04-09T04:36:19;102449.41;;;12.07;100.00
47104;BME280;32853;52.164;5.400;2023-04-09T04:38:45;102454.59;;;12.12;100.00
47104;BME280;32853;52.164;5.400;2023-04-09T04:41:16;102455.34;;;12.17;100.00
47104;BME280;32853;52.164;5.400;2023-04-09T04:43:41;102460.50;;;12.21;100.00
47104;BME280;32853;52.164;5.400;2023-04-09T04:46:07;102461.56;;;12.13;100.00
47104;BME280;32853;52.164;5.400;2023-04-09T04:48:32;102444.34;;;12.00;100.00
47104;BME280;32853;52.164;5.400;2023-04-09T04:50:59;102443.56;;;11.95;100.00
47104;BME280;32853;52.164;5.400;2023-04-09T04:53:26;102409.78;;;11.78;100.00
47104;BME280;32853;52.164;5.400;2023-04-09T04:55:52;102467.38;;;11.84;100.00
47104;BME280;32853;52.164;5.400;2023-04-09T04:58:19;102452.34;;;11.92;100.00
47104;BME280;32853;52.164;5.400;2023-04-09T05:00:45;102457.47;;;12.00;100.00
47104;BME280;32853;52.164;5.400;2023-04-09T05:03:11;102456.69;;;11.93;100.00
47104;BME280;32853;52.164;5.400;2023-04-09T05:05:37;102450.53;;;11.96;100.00
47104;BME280;32853;52.164;5.400;2023-04-09T05:08:03;102453.97;;;11.99;100.00
47104;BME280;32853;52.164;5.400;2023-04-09T05:10:28;102314.22;;;11.06;100.00
47104;BME280;32853;52.164;5.400;2023-04-09T05:12:54;102393.00;;;11.43;100.00
47104;BME280;32853;52.164;5.400;2023-04-09T05:15:28;102449.16;;;11.75;100.00
47104;BME280;32853;52.164;5.400;2023-04-09T05:17:54;102400.69;;;11.51;100.00
47104;BME280;32853;52.164;5.400;2023-04-09T05:20:22;102416.00;;;11.72;100.00
47104;BME280;32853;52.164;5.400;2023-04-09T05:22:47;102394.44;;;11.58;100.00
47104;BME280;32853;52.164;5.400;2023-04-09T05:25:15;102448.88;;;11.91;100.00
47104;BME280;32853;52.164;5.400;2023-04-09T05:27:40;102392.00;;;11.49;100.00
47104;BME280;32853;52.164;5.400;2023-04-09T05:30:09;102464.00;;;11.76;100.00
47104;BME280;32853;52.164;5.400;2023-04-09T05:32:36;102441.34;;;11.72;100.00
47104;BME280;32853;52.164;5.400;2023-04-09T05:35:04;102471.72;;;11.86;100.00
47104;BME280;32853;52.164;5.400;2023-04-09T05:37:30;102450.56;;;11.94;100.00
47104;BME280;32853;52.164;5.400;2023-04-09T05:40:14;102467.16;;;11.95;100.00
47104;BME280;32853;52.164;5.400;2023-04-09T05:42:40;102453.72;;;11.65;100.00
47104;BME280;32853;52.164;5.400;2023-04-09T05:45:16;102442.66;;;11.49;100.00
47104;BME280;32853;52.164;5.400;2023-04-09T05:47:41;102479.75;;;11.74;100.00
47104;BME280;32853;52.164;5.400;2023-04-09T05:50:10;102459.97;;;11.58;100.00
47104;BME280;32853;52.164;5.400;2023-04-09T05:52:36;102467.91;;;11.53;100.00
47104;BME280;32853;52.164;5.400;2023-04-09T05:55:02;102448.50;;;11.63;100.00
47104;BME280;32853;52.164;5.400;2023-04-09T05:57:28;102436.44;;;11.55;100.00
47104;BME280;32853;52.164;5.400;2023-04-09T05:59:57;102463.88;;;11.83;100.00
47104;BME280;32853;52.164;5.400;2023-04-09T06:02:38;102457.72;;;11.86;100.00
47104;BME280;32853;52.164;5.400;2023-04-09T06:05:06;102457.84;;;11.78;100.00
47104;BME280;32853;52.164;5.400;2023-04-09T06:07:37;102484.03;;;11.81;100.00
47104;BME280;32853;52.164;5.400;2023-04-09T06:10:07;102453.56;;;11.73;100.00
47104;BME280;32853;52.164;5.400;2023-04-09T06:12:35;102422.44;;;11.56;100.00
47104;BME280;32853;52.164;5.400;2023-04-09T06:15:01;102481.41;;;11.81;100.00
47104;BME280;32853;52.164;5.400;2023-04-09T06:17:46;102477.59;;;11.98;100.00
47104;BME280;32853;52.164;5.400;2023-04-09T06:20:18;102456.84;;;11.85;100.00
47104;BME280;32853;52.164;5.400;2023-04-09T06:22:43;102480.22;;;11.98;100.00
47104;BME280;32853;52.164;5.400;2023-04-09T06:25:08;102453.34;;;11.85;100.00
47104;BME280;32853;52.164;5.400;2023-04-09T06:27:42;102479.34;;;11.97;100.00
47104;BME280;32853;52.164;5.400;2023-04-09T06:30:25;102470.78;;;11.89;100.00
47104;BME280;32853;52.164;5.400;2023-04-09T06:32:51;102436.06;;;11.73;100.00
47104;BME280;32853;52.164;5.400;2023-04-09T06:38:57;102493.25;;;12.02;100.00
47104;BME280;32853;52.164;5.400;2023-04-09T06:41:36;102432.81;;;11.60;100.00
47104;BME280;32853;52.164;5.400;2023-04-09T06:44:17;102480.25;;;11.95;100.00
47104;BME280;32853;52.164;5.400;2023-04-09T06:46:44;102430.91;;;11.70;100.00
47104;BME280;32853;52.164;5.400;2023-04-09T06:49:12;102487.75;;;12.14;100.00
47104;BME280;32853;52.164;5.400;2023-04-09T06:51:37;102492.09;;;12.15;100.00
47104;BME280;32853;52.164;5.400;2023-04-09T06:54:06;102429.06;;;11.75;100.00
47104;BME280;32853;52.164;5.400;2023-04-09T06:56:32;102480.63;;;12.21;100.00
47104;BME280;32853;52.164;5.400;2023-04-09T06:59:01;102427.22;;;11.82;100.00
47104;BME280;32853;52.164;5.400;2023-04-09T07:01:26;102493.09;;;12.10;100.00
47104;BME280;32853;52.164;5.400;2023-04-09T07:03:52;102458.81;;;11.73;100.00
47104;BME280;32853;52.164;5.400;2023-04-09T07:06:40;102492.38;;;12.02;100.00
47104;BME280;32853;52.164;5.400;2023-04-09T07:09:10;102481.41;;;11.81;100.00
47104;BME280;32853;52.164;5.400;2023-04-09T07:11:40;102479.38;;;11.96;100.00
47104;BME280;32853;52.164;5.400;2023-04-09T07:14:27;102498.75;;;11.88;100.00
47104;BME280;32853;52.164;5.400;2023-04-09T07:16:53;102490.19;;;11.77;100.00
47104;BME280;32853;52.164;5.400;2023-04-09T07:19:18;102474.41;;;11.82;100.00
47104;BME280;32853;52.164;5.400;2023-04-09T07:22:11;102501.06;;;12.04;100.00
47104;BME280;32853;52.164;5.400;2023-04-09T07:25:15;102503.75;;;12.01;100.00
47104;BME280;32853;52.164;5.400;2023-04-09T07:27:46;102502.94;;;11.97;100.00
47104;BME280;32853;52.164;5.400;2023-04-09T07:30:40;102491.00;;;11.82;100.00
47104;BME280;32853;52.164;5.400;2023-04-09T07:33:06;102508.50;;;11.79;100.00
47104;BME280;32853;52.164;5.400;2023-04-09T07:35:31;102499.16;;;12.12;100.00
47104;BME280;32853;52.164;5.400;2023-04-09T07:38:11;102486.78;;;12.18;100.00
47104;BME280;32853;52.164;5.400;2023-04-09T07:40:37;102507.44;;;12.35;100.00
47104;BME280;32853;52.164;5.400;2023-04-09T07:43:03;102507.59;;;12.28;100.00
47104;BME280;32853;52.164;5.400;2023-04-09T07:45:30;102512.72;;;12.34;100.00
47104;BME280;32853;52.164;5.400;2023-04-09T07:47:57;102465.06;;;12.12;100.00
47104;BME280;32853;52.164;5.400;2023-04-09T07:50:23;102503.34;;;12.22;100.00
47104;BME280;32853;52.164;5.400;2023-04-09T07:52:53;102444.84;;;11.72;100.00
47104;BME280;32853;52.164;5.400;2023-04-09T07:55:19;102426.00;;;11.52;100.00
47104;BME280;32853;52.164;5.400;2023-04-09T07:57:55;102411.19;;;11.49;100.00
47104;BME280;32853;52.164;5.400;2023-04-09T08:00:24;102497.66;;;12.00;100.00
47104;BME280;32853;52.164;5.400;2023-04-09T08:06:32;102486.31;;;12.00;100.00
47104;BME280;32853;52.164;5.400;2023-04-09T08:09:06;102422.72;;;11.88;100.00
47104;BME280;32853;52.164;5.400;2023-04-09T08:11:34;102515.09;;;12.46;100.00
47104;BME280;32853;52.164;5.400;2023-04-09T08:14:00;102374.69;;;11.88;100.00
47104;BME280;32853;52.164;5.400;2023-04-09T08:16:27;102504.22;;;12.64;100.00
47104;BME280;32853;52.164;5.400;2023-04-09T08:18:54;102498.84;;;12.69;100.00
47104;BME280;32853;52.164;5.400;2023-04-09T08:21:21;102418.97;;;12.40;100.00
47104;BME280;32853;52.164;5.400;2023-04-09T08:23:48;102440.50;;;12.56;100.00
47104;BME280;32853;52.164;5.400;2023-04-09T08:26:13;102359.59;;;11.99;100.00
47104;BME280;32853;52.164;5.400;2023-04-09T08:28:39;102500.16;;;12.88;100.00
47104;BME280;32853;52.164;5.400;2023-04-09T08:31:24;102534.59;;;13.13;100.00
47104;BME280;32853;52.164;5.400;2023-04-09T08:33:56;102507.59;;;13.08;100.00
47104;BME280;32853;52.164;5.400;2023-04-09T08:36:21;102371.22;;;12.26;100.00
47104;BME280;32853;52.164;5.400;2023-04-09T08:38:47;102384.50;;;12.18;100.00
47104;BME280;32853;52.164;5.400;2023-04-09T08:41:18;102437.03;;;12.56;100.00
47104;BME280;32853;52.164;5.400;2023-04-09T08:43:46;102501.59;;;13.01;100.00
47104;BME280;32853;52.164;5.400;2023-04-09T08:46:15;102498.97;;;13.01;100.00
47104;BME280;32853;52.164;5.400;2023-04-09T08:49:03;102495.97;;;13.17;100.00
47104;BME280;32853;52.164;5.400;2023-04-09T08:51:47;102491.94;;;13.75;100.00
47104;BME280;32853;52.164;5.400;2023-04-09T08:54:15;102477.00;;;13.41;100.00
47104;BME280;32853;52.164;5.400;2023-04-09T08:57:03;102500.69;;;13.74;100.00
47104;BME280;32853;52.164;5.400;2023-04-09T08:59:29;102488.78;;;13.60;100.00
47104;BME280;32853;52.164;5.400;2023-04-09T09:02:13;102495.09;;;13.87;100.00
47104;BME280;32853;52.164;5.400;2023-04-09T09:04:47;102476.81;;;13.81;100.00
47104;BME280;32853;52.164;5.400;2023-04-09T09:07:15;102373.16;;;13.26;100.00
47104;BME280;32853;52.164;5.400;2023-04-09T09:10:04;102437.84;;;13.97;99.60
47104;BME280;32853;52.164;5.400;2023-04-09T09:12:45;102440.31;;;14.02;100.00
47104;BME280;32853;52.164;5.400;2023-04-09T09:15:29;102469.34;;;14.59;100.00
47104;BME280;32853;52.164;5.400;2023-04-09T09:18:04;102439.41;;;13.72;100.00
47104;BME280;32853;52.164;5.400;2023-04-09T09:20:32;102480.88;;;14.24;100.00
47104;BME280;32853;52.164;5.400;2023-04-09T09:22:58;102474.50;;;14.62;96.73
47104;BME280;32853;52.164;5.400;2023-04-09T09:25:24;102448.63;;;14.76;94.50
47104;BME280;32853;52.164;5.400;2023-04-09T09:27:51;102476.28;;;14.62;97.10
47104;BME280;32853;52.164;5.400;2023-04-09T09:30:24;102466.78;;;14.86;97.72
47104;BME280;32853;52.164;5.400;2023-04-09T09:33:16;102453.38;;;14.65;95.36
47104;BME280;32853;52.164;5.400;2023-04-09T09:35:53;102469.06;;;14.68;94.64
47104;BME280;32853;52.164;5.400;2023-04-09T09:39:07;102462.03;;;14.69;96.02
47104;BME280;32853;52.164;5.400;2023-04-09T09:42:06;102442.22;;;14.83;94.33
47104;BME280;32853;52.164;5.400;2023-04-09T09:44:40;102472.16;;;15.35;88.93
47104;BME280;32853;52.164;5.400;2023-04-09T09:47:11;102434.69;;;15.26;84.28
47104;BME280;32853;52.164;5.400;2023-04-09T09:49:51;102462.56;;;15.33;90.23
47104;BME280;32853;52.164;5.400;2023-04-09T09:52:43;102464.13;;;15.38;86.33
47104;BME280;32853;52.164;5.400;2023-04-09T09:55:12;102454.16;;;14.95;86.37
47104;BME280;32853;52.164;5.400;2023-04-09T09:57:41;102403.94;;;14.73;86.85
47104;BME280;32853;52.164;5.400;2023-04-09T10:00:24;102216.72;;;13.74;84.71
47104;BME280;32853;52.164;5.400;2023-04-09T10:03:16;102328.06;;;14.85;85.52
47104;BME280;32853;52.164;5.400;2023-04-09T10:05:44;102451.91;;;15.62;83.38
47104;BME280;32853;52.164;5.400;2023-04-09T10:08:22;102433.28;;;15.67;82.21
47104;BME280;32853;52.164;5.400;2023-04-09T10:10:49;102444.59;;;15.94;78.88
47104;BME280;32853;52.164;5.400;2023-04-09T10:13:34;102447.31;;;16.16;78.58
47104;BME280;32853;52.164;5.400;2023-04-09T10:16:03;102415.78;;;15.89;76.87
47104;BME280;32853;52.164;5.400;2023-04-09T10:18:35;102438.06;;;16.27;75.87
47104;BME280;32853;52.164;5.400;2023-04-09T10:21:25;102416.19;;;16.47;76.39
47104;BME280;32853;52.164;5.400;2023-04-09T10:24:06;102381.19;;;16.42;73.37
47104;BME280;32853;52.164;5.400;2023-04-09T10:26:40;102422.78;;;16.81;73.04
47104;BME280;32853;52.164;5.400;2023-04-09T10:29:26;102415.97;;;16.97;70.80
47104;BME280;32853;52.164;5.400;2023-04-09T10:32:39;102411.34;;;17.02;70.06
47104;BME280;32853;52.164;5.400;2023-04-09T10:38:16;102408.31;;;17.32;68.91
47104;BME280;32853;52.164;5.400;2023-04-09T10:41:08;102410.28;;;17.47;67.75
47104;BME280;32853;52.164;5.400;2023-04-09T10:43:45;102404.22;;;17.45;65.20
47104;BME280;32853;52.164;5.400;2023-04-09T10:49:37;102394.16;;;17.53;65.58
47104;BME280;32853;52.164;5.400;2023-04-09T10:52:33;102396.44;;;17.81;63.57
47104;BME280;32853;52.164;5.400;2023-04-09T10:54:59;102354.91;;;17.24;63.93
47104;BME280;32853;52.164;5.400;2023-04-09T10:57:27;102360.56;;;17.55;64.60
47104;BME280;32853;52.164;5.400;2023-04-09T10:59:53;102393.31;;;17.92;64.84
47104;BME280;32853;52.164;5.400;2023-04-09T11:02:26;102389.53;;;18.16;64.90
47104;BME280;32853;52.164;5.400;2023-04-09T11:07:39;102341.28;;;17.72;60.30
47104;BME280;32853;52.164;5.400;2023-04-09T11:10:18;102367.44;;;17.98;61.25
47104;BME280;32853;52.164;5.400;2023-04-09T11:12:46;102364.28;;;18.09;61.74
47104;BME280;32853;52.164;5.400;2023-04-09T11:15:16;102380.19;;;18.45;60.20
47104;BME280;32853;52.164;5.400;2023-04-09T11:17:42;102375.94;;;18.05;58.01
47104;BME280;32853;52.164;5.400;2023-04-09T11:20:09;102376.13;;;17.82;59.08
47104;BME280;32853;52.164;5.400;2023-04-09T11:22:35;102366.91;;;17.90;59.75
47104;BME280;32853;52.164;5.400;2023-04-09T11:25:00;102369.91;;;17.83;57.91
47104;BME280;32853;52.164;5.400;2023-04-09T11:27:26;102372.31;;;18.08;57.47
47104;BME280;32853;52.164;5.400;2023-04-09T11:29:55;102366.78;;;18.31;57.03
47104;BME280;32853;52.164;5.400;2023-04-09T11:32:20;102370.91;;;18.18;56.08
47104;BME280;32853;52.164;5.400;2023-04-09T11:34:54;102360.31;;;18.37;56.96
47104;BME280;32853;52.164;5.400;2023-04-09T11:37:22;102363.28;;;18.67;56.33
47104;BME280;32853;52.164;5.400;2023-04-09T11:39:54;102324.84;;;18.39;54.01
47104;BME280;32853;52.164;5.400;2023-04-09T11:42:40;102352.31;;;18.74;52.69
47104;BME280;32853;52.164;5.400;2023-04-09T11:45:05;102335.78;;;18.50;51.37
47104;BME280;32853;52.164;5.400;2023-04-09T11:47:32;102311.59;;;18.39;51.83
47104;BME280;32853;52.164;5.400;2023-04-09T11:49:57;102306.56;;;18.35;51.46
47104;BME280;32853;52.164;5.400;2023-04-09T11:52:23;102340.22;;;18.69;52.83
47104;BME280;32853;52.164;5.400;2023-04-09T11:54:59;102351.81;;;18.83;52.80
47104;BME280;32853;52.164;5.400;2023-04-09T11:57:38;102319.09;;;18.67;51.55
47104;BME280;32853;52.164;5.400;2023-04-09T12:00:07;102351.06;;;18.99;50.62
47104;BME280;32853;52.164;5.400;2023-04-09T12:02:39;102358.06;;;18.82;49.81
47104;BME280;32853;52.164;5.400;2023-04-09T12:05:19;102360.19;;;18.76;49.66
47104;BME280;32853;52.164;5.400;2023-04-09T12:08:03;102350.13;;;19.00;49.40
47104;BME280;32853;52.164;5.400;2023-04-09T12:10:31;102340.03;;;19.06;49.95
47104;BME280;32853;52.164;5.400;2023-04-09T12:13:04;102283.41;;;18.74;48.78
47104;BME280;32853;52.164;5.400;2023-04-09T12:15:42;102340.28;;;18.67;49.49
47104;BME280;32853;52.164;5.400;2023-04-09T12:18:12;102308.63;;;18.81;49.41
47104;BME280;32853;52.164;5.400;2023-04-09T12:20:40;102349.97;;;19.03;48.33
47104;BME280;32853;52.164;5.400;2023-04-09T12:23:17;102277.94;;;18.77;49.46
47104;BME280;32853;52.164;5.400;2023-04-09T12:25:44;102292.59;;;18.84;49.74
47104;BME280;32853;52.164;5.400;2023-04-09T12:28:11;102336.44;;;19.42;49.35
47104;BME280;32853;52.164;5.400;2023-04-09T12:30:38;102333.41;;;19.32;47.57
47104;BME280;32853;52.164;5.400;2023-04-09T12:33:04;102341.66;;;19.26;47.45
47104;BME280;32853;52.164;5.400;2023-04-09T12:35:31;102339.28;;;19.22;47.06
47104;BME280;32853;52.164;5.400;2023-04-09T12:37:56;102343.94;;;19.16;46.45
47104;BME280;32853;52.164;5.400;2023-04-09T12:40:25;102340.81;;;19.26;47.83
47104;BME280;32853;52.164;5.400;2023-04-09T12:42:51;102335.28;;;19.30;47.09
47104;BME280;32853;52.164;5.400;2023-04-09T12:45:17;102341.03;;;19.71;47.67
47104;BME280;32853;52.164;5.400;2023-04-09T12:48:03;102328.16;;;19.97;46.58
47104;BME280;32853;52.164;5.400;2023-04-09T12:50:29;102332.06;;;20.06;45.36
47104;BME280;32853;52.164;5.400;2023-04-09T12:52:54;102327.59;;;19.59;44.69
47104;BME280;32853;52.164;5.400;2023-04-09T12:55:20;102338.19;;;19.59;45.81
47104;BME280;32853;52.164;5.400;2023-04-09T12:57:48;102327.94;;;19.35;46.11
47104;BME280;32853;52.164;5.400;2023-04-09T13:00:14;102338.13;;;19.43;45.07
47104;BME280;32853;52.164;5.400;2023-04-09T13:02:40;102318.06;;;19.55;46.07
47104;BME280;32853;52.164;5.400;2023-04-09T13:05:05;102316.03;;;19.60;46.30
47104;BME280;32853;52.164;5.400;2023-04-09T13:07:31;102268.09;;;19.63;47.14
47104;BME280;32853;52.164;5.400;2023-04-09T13:10:19;102317.81;;;20.38;47.51
47104;BME280;32853;52.164;5.400;2023-04-09T13:12:53;102322.25;;;20.69;46.43
47104;BME280;32853;52.164;5.400;2023-04-09T13:15:19;102323.72;;;20.59;45.09
47104;BME280;32853;52.164;5.400;2023-04-09T13:18:14;102313.81;;;20.77;44.89
47104;BME280;32853;52.164;5.400;2023-04-09T13:20:40;102312.78;;;20.49;44.33
47104;BME280;32853;52.164;5.400;2023-04-09T13:23:05;102330.09;;;20.56;43.13
47104;BME280;32853;52.164;5.400;2023-04-09T13:25:34;102325.88;;;20.82;44.68
47104;BME280;32853;52.164;5.400;2023-04-09T13:28:01;102303.97;;;20.93;44.83
47104;BME280;32853;52.164;5.400;2023-04-09T13:34:17;102317.09;;;20.96;43.59